createdAt,value
2023-08-15T00:00:18.701Z,101298.31
2023-08-15T00:01:20.447Z,101357.50
2023-08-15T00:02:24.538Z,101417.13
2023-08-15T00:03:26.337Z,101424.72
2023-08-15T00:04:28.000Z,101416.94
2023-08-15T00:05:29.595Z,101427.75
2023-08-15T00:06:36.961Z,101429.78
2023-08-15T00:07:38.617Z,101427.88
2023-08-15T00:08:40.369Z,101434.13
2023-08-15T00:09:41.942Z,101422.66
2023-08-15T00:10:43.611Z,101402.19
2023-08-15T00:11:45.207Z,101369.88
2023-08-15T00:12:48.128Z,101335.00
2023-08-15T00:13:50.458Z,101322.56
2023-08-15T00:14:52.088Z,101312.69
2023-08-15T00:15:53.688Z,101284.34
2023-08-15T00:16:55.316Z,101288.13
2023-08-15T00:17:57.055Z,101277.50
2023-08-15T00:18:58.774Z,101264.16
2023-08-15T00:20:00.398Z,101265.09
2023-08-15T00:21:01.971Z,101274.94
2023-08-15T00:22:03.751Z,101274.09
2023-08-15T00:23:05.590Z,101277.59
2023-08-15T00:24:07.787Z,101264.84
2023-08-15T00:25:09.461Z,101258.53
2023-08-15T00:26:11.083Z,101277.91
2023-08-15T00:27:12.719Z,101298.53
2023-08-15T00:28:15.715Z,101290.81
2023-08-15T00:29:17.472Z,101282.78
2023-08-15T00:30:19.183Z,101289.13
2023-08-15T00:31:20.867Z,101280.28
2023-08-15T00:32:22.679Z,101280.28
2023-08-15T00:33:26.102Z,101281.06
2023-08-15T00:34:27.723Z,101281.22
2023-08-15T00:35:29.457Z,101270.44
2023-08-15T00:36:31.170Z,101270.53
2023-08-15T00:37:33.990Z,101274.97
2023-08-15T00:38:36.570Z,101264.19
2023-08-15T00:39:40.388Z,101263.38
2023-08-15T00:40:44.886Z,101256.25
2023-08-15T00:41:46.640Z,101258.03
2023-08-15T00:42:48.290Z,101249.00
2023-08-15T00:43:52.309Z,101232.72
2023-08-15T00:44:53.919Z,101226.44
2023-08-15T00:45:55.808Z,101240.50
2023-08-15T00:46:58.645Z,101233.44
2023-08-15T00:48:00.502Z,101226.13
2023-08-15T00:49:02.353Z,101224.28
2023-08-15T00:50:06.629Z,101226.72
2023-08-15T00:51:11.245Z,101214.84
2023-08-15T00:52:14.833Z,101210.25
2023-08-15T00:53:18.786Z,101212.69
2023-08-15T00:54:21.414Z,101213.38
2023-08-15T00:55:23.352Z,101202.53
2023-08-15T00:56:25.013Z,101196.13
2023-08-15T00:57:26.704Z,101194.19
2023-08-15T00:58:30.095Z,101186.91
2023-08-15T00:59:33.977Z,101197.53
2023-08-15T01:00:35.580Z,101195.66
2023-08-15T01:01:37.636Z,101186.59
2023-08-15T01:02:39.946Z,101188.25
2023-08-15T01:03:42.405Z,101178.47
2023-08-15T01:04:44.643Z,101185.75
2023-08-15T01:05:48.116Z,101185.63
2023-08-15T01:06:49.720Z,101169.41
2023-08-15T01:07:51.432Z,101164.84
2023-08-15T01:08:53.478Z,101172.06
2023-08-15T01:09:55.050Z,101162.19
2023-08-15T01:10:56.618Z,101161.19
2023-08-15T01:12:06.640Z,101158.63
2023-08-15T01:13:15.158Z,101162.34
2023-08-15T01:14:20.358Z,101153.31
2023-08-15T01:15:26.290Z,101150.66
2023-08-15T01:16:34.505Z,101146.44
2023-08-15T01:17:40.399Z,101157.22
2023-08-15T01:18:45.585Z,101162.47
2023-08-15T01:19:50.559Z,101160.66
2023-08-15T01:20:55.732Z,101159.81
2023-08-15T01:22:00.068Z,101150.34
2023-08-15T01:23:04.529Z,101153.28
2023-08-15T01:24:08.624Z,101146.88
2023-08-15T01:25:10.311Z,101140.47
2023-08-15T01:26:12.173Z,101143.09
2023-08-15T01:27:13.775Z,101142.00
2023-08-15T01:28:16.471Z,101129.50
2023-08-15T01:29:17.993Z,101124.44
2023-08-15T01:30:24.031Z,101128.94
2023-08-15T01:31:33.805Z,101125.28
2023-08-15T01:32:40.345Z,101121.53
2023-08-15T01:33:50.980Z,101108.13
2023-08-15T01:34:59.947Z,101108.06
2023-08-15T01:36:05.412Z,101105.28
2023-08-15T01:37:14.428Z,101109.56
2023-08-15T01:38:22.750Z,101108.53
2023-08-15T01:39:29.738Z,101104.81
2023-08-15T01:40:35.286Z,101105.59
2023-08-15T01:41:38.604Z,101109.16
2023-08-15T01:42:41.872Z,101100.19
2023-08-15T01:43:45.006Z,101106.53
2023-08-15T01:44:47.190Z,101105.38
2023-08-15T01:45:49.427Z,101099.78
2023-08-15T01:46:51.093Z,101102.78
2023-08-15T01:47:52.932Z,101108.81
2023-08-15T01:48:54.545Z,101102.31
2023-08-15T01:49:56.141Z,101096.81
2023-08-15T01:50:57.783Z,101098.47
2023-08-15T01:51:59.406Z,101101.06
2023-08-15T01:53:01.149Z,101101.91
2023-08-15T01:54:04.097Z,101104.53
2023-08-15T01:55:07.864Z,101106.34
2023-08-15T01:56:10.013Z,101102.00
2023-08-15T01:57:11.865Z,101110.22
2023-08-15T01:58:13.764Z,101114.75
2023-08-15T01:59:15.352Z,101113.25
2023-08-15T02:00:17.207Z,101107.03
2023-08-15T02:01:18.862Z,101113.47
2023-08-15T02:02:20.712Z,101107.19
2023-08-15T02:03:22.345Z,101115.31
2023-08-15T02:04:23.957Z,101119.72
2023-08-15T02:05:25.563Z,101118.56
2023-08-15T02:06:27.285Z,101120.09
2023-08-15T02:07:28.881Z,101112.81
2023-08-15T02:08:30.437Z,101111.78
2023-08-15T02:09:32.058Z,101114.50
2023-08-15T02:10:35.167Z,101106.47
2023-08-15T02:11:36.786Z,101109.41
2023-08-15T02:12:38.366Z,101110.22
2023-08-15T02:13:39.959Z,101108.25
2023-08-15T02:14:41.658Z,101101.78
2023-08-15T02:15:43.325Z,101113.19
2023-08-15T02:16:44.905Z,101105.94
2023-08-15T02:17:46.608Z,101104.16
2023-08-15T02:18:48.184Z,101105.94
2023-08-15T02:19:49.820Z,101108.47
2023-08-15T02:20:51.425Z,101110.13
2023-08-15T02:21:53.223Z,101117.19
2023-08-15T02:22:54.884Z,101114.50
2023-08-15T02:23:58.320Z,101118.16
2023-08-15T02:24:59.892Z,101113.75
2023-08-15T02:26:03.274Z,101119.31
2023-08-15T02:27:04.974Z,101123.94
2023-08-15T02:28:06.798Z,101126.56
2023-08-15T02:29:08.366Z,101121.13
2023-08-15T02:30:10.827Z,101119.09
2023-08-15T02:31:12.525Z,101122.81
2023-08-15T02:32:14.120Z,101125.47
2023-08-15T02:33:15.722Z,101130.88
2023-08-15T02:34:17.933Z,101127.28
2023-08-15T02:35:19.739Z,101134.56
2023-08-15T02:36:21.787Z,101128.38
2023-08-15T02:37:24.014Z,101129.25
2023-08-15T02:38:25.676Z,101130.16
2023-08-15T02:39:27.277Z,101137.28
2023-08-15T02:40:28.957Z,101140.00
2023-08-15T02:41:31.891Z,101129.22
2023-08-15T02:42:33.653Z,101126.44
2023-08-15T02:43:35.216Z,101127.22
2023-08-15T02:44:37.382Z,101123.66
2023-08-15T02:45:38.956Z,101130.84
2023-08-15T02:46:41.103Z,101140.59
2023-08-15T02:47:42.726Z,101132.53
2023-08-15T02:48:44.327Z,101128.38
2023-08-15T02:49:46.339Z,101126.06
2023-08-15T02:50:47.927Z,101138.47
2023-08-15T02:51:49.512Z,101130.38
2023-08-15T02:52:51.166Z,101132.91
2023-08-15T02:53:52.734Z,101130.25
2023-08-15T02:54:54.351Z,101135.53
2023-08-15T02:55:55.912Z,101130.13
2023-08-15T02:56:58.841Z,101134.56
2023-08-15T02:58:00.645Z,101129.94
2023-08-15T02:59:02.269Z,101135.19
2023-08-15T03:00:04.196Z,101127.16
2023-08-15T03:01:05.841Z,101133.47
2023-08-15T03:02:07.535Z,101132.59
2023-08-15T03:03:09.231Z,101122.75
2023-08-15T03:04:10.818Z,101130.72
2023-08-15T03:05:12.450Z,101123.56
2023-08-15T03:06:14.114Z,101129.91
2023-08-15T03:07:15.922Z,101130.78
2023-08-15T03:08:17.560Z,101117.38
2023-08-15T03:09:19.118Z,101129.88
2023-08-15T03:10:20.666Z,101128.09
2023-08-15T03:11:22.313Z,101129.09
2023-08-15T03:12:26.203Z,101126.38
2023-08-15T03:13:27.903Z,101135.25
2023-08-15T03:14:29.720Z,101135.19
2023-08-15T03:15:31.838Z,101122.75
2023-08-15T03:16:33.545Z,101130.78
2023-08-15T03:17:35.423Z,101126.38
2023-08-15T03:18:37.088Z,101139.69
2023-08-15T03:19:38.956Z,101132.47
2023-08-15T03:20:40.590Z,101124.53
2023-08-15T03:21:42.222Z,101128.91
2023-08-15T03:22:44.145Z,101131.53
2023-08-15T03:23:45.866Z,101136.84
2023-08-15T03:24:47.519Z,101143.13
2023-08-15T03:25:54.940Z,101134.09
2023-08-15T03:26:56.569Z,101135.88
2023-08-15T03:27:59.522Z,101139.44
2023-08-15T03:29:01.672Z,101141.19
2023-08-15T03:30:03.546Z,101140.31
2023-08-15T03:31:05.664Z,101135.84
2023-08-15T03:32:08.347Z,101137.59
2023-08-15T03:33:11.784Z,101128.72
2023-08-15T03:34:13.479Z,101135.88
2023-08-15T03:35:15.440Z,101132.44
2023-08-15T03:36:17.169Z,101133.47
2023-08-15T03:37:19.104Z,101133.47
2023-08-15T03:38:22.692Z,101140.66
2023-08-15T03:39:24.461Z,101140.63
2023-08-15T03:40:26.078Z,101143.22
2023-08-15T03:41:27.710Z,101150.53
2023-08-15T03:42:29.261Z,101147.88
2023-08-15T03:43:32.531Z,101158.53
2023-08-15T03:44:34.172Z,101158.50
2023-08-15T03:45:35.836Z,101158.59
2023-08-15T03:46:37.439Z,101159.47
2023-08-15T03:47:39.135Z,101153.31
2023-08-15T03:48:40.785Z,101156.81
2023-08-15T03:49:42.399Z,101158.69
2023-08-15T03:50:43.982Z,101156.97
2023-08-15T03:51:47.334Z,101153.44
2023-08-15T03:52:50.004Z,101155.13
2023-08-15T03:53:51.774Z,101156.00
2023-08-15T03:54:53.489Z,101154.28
2023-08-15T03:55:55.746Z,101155.13
2023-08-15T03:56:57.625Z,101157.75
2023-08-15T03:58:00.262Z,101156.13
2023-08-15T03:59:03.380Z,101158.03
2023-08-15T04:00:06.002Z,101162.41
2023-08-15T04:01:15.198Z,101156.06
2023-08-15T04:02:16.814Z,101160.47
2023-08-15T04:03:18.585Z,101155.09
2023-08-15T04:04:21.856Z,101156.88
2023-08-15T04:05:23.799Z,101159.63
2023-08-15T04:06:25.774Z,101158.72
2023-08-15T04:07:27.374Z,101153.31
2023-08-15T04:08:29.021Z,101159.41
2023-08-15T04:09:30.646Z,101169.16
2023-08-15T04:10:32.245Z,101166.41
2023-08-15T04:11:33.839Z,101160.09
2023-08-15T04:12:38.527Z,101170.00
2023-08-15T04:13:40.250Z,101168.19
2023-08-15T04:14:43.818Z,101171.72
2023-08-15T04:15:45.547Z,101178.84
2023-08-15T04:16:49.027Z,101177.16
2023-08-15T04:17:51.194Z,101179.84
2023-08-15T04:18:52.808Z,101172.75
2023-08-15T04:19:54.416Z,101180.69
2023-08-15T04:20:56.458Z,101183.34
2023-08-15T04:21:58.232Z,101189.50
2023-08-15T04:23:00.658Z,101188.56
2023-08-15T04:24:02.257Z,101190.22
2023-08-15T04:25:04.588Z,101197.34
2023-08-15T04:26:06.180Z,101198.28
2023-08-15T04:27:07.934Z,101199.19
2023-08-15T04:28:09.710Z,101198.22
2023-08-15T04:29:12.528Z,101200.84
2023-08-15T04:30:15.770Z,101196.31
2023-08-15T04:31:17.735Z,101197.25
2023-08-15T04:32:19.346Z,101200.78
2023-08-15T04:33:21.068Z,101198.94
2023-08-15T04:34:22.845Z,101194.50
2023-08-15T04:35:24.998Z,101195.38
2023-08-15T04:36:27.400Z,101198.91
2023-08-15T04:37:29.787Z,101204.16
2023-08-15T04:38:32.119Z,101196.19
2023-08-15T04:39:33.754Z,101204.22
2023-08-15T04:40:37.757Z,101206.91
2023-08-15T04:41:39.582Z,101209.63
2023-08-15T04:42:42.525Z,101205.19
2023-08-15T04:43:44.209Z,101206.94
2023-08-15T04:44:45.792Z,101201.53
2023-08-15T04:45:48.814Z,101201.47
2023-08-15T04:46:50.413Z,101197.88
2023-08-15T04:47:52.169Z,101206.81
2023-08-15T04:48:54.257Z,101202.31
2023-08-15T04:49:56.004Z,101200.53
2023-08-15T04:50:57.590Z,101208.59
2023-08-15T04:51:59.234Z,101205.88
2023-08-15T04:53:01.001Z,101196.97
2023-08-15T04:54:02.787Z,101194.25
2023-08-15T04:55:05.231Z,101208.59
2023-08-15T04:56:06.847Z,101202.44
2023-08-15T04:57:08.559Z,101197.03
2023-08-15T04:58:10.177Z,101199.63
2023-08-15T04:59:11.909Z,101202.28
2023-08-15T05:00:14.591Z,101199.63
2023-08-15T05:01:17.835Z,101205.00
2023-08-15T05:02:19.473Z,101210.38
2023-08-15T05:03:21.017Z,101207.72
2023-08-15T05:04:22.747Z,101217.53
2023-08-15T05:05:26.531Z,101213.09
2023-08-15T05:06:28.124Z,101222.91
2023-08-15T05:07:30.129Z,101224.88
2023-08-15T05:08:31.952Z,101220.78
2023-08-15T05:09:33.538Z,101225.16
2023-08-15T05:10:35.506Z,101228.91
2023-08-15T05:11:37.912Z,101228.75
2023-08-15T05:12:40.818Z,101220.53
2023-08-15T05:13:42.674Z,101222.16
2023-08-15T05:14:44.244Z,101217.53
2023-08-15T05:15:45.892Z,101215.66
2023-08-15T05:16:49.728Z,101215.59
2023-08-15T05:17:51.587Z,101213.75
2023-08-15T05:18:53.278Z,101216.31
2023-08-15T05:19:54.916Z,101219.00
2023-08-15T05:20:56.572Z,101215.31
2023-08-15T05:21:58.226Z,101216.16
2023-08-15T05:23:00.193Z,101210.75
2023-08-15T05:24:01.997Z,101221.38
2023-08-15T05:25:04.186Z,101221.28
2023-08-15T05:26:08.540Z,101215.81
2023-08-15T05:27:12.748Z,101215.81
2023-08-15T05:28:14.766Z,101205.97
2023-08-15T05:29:16.347Z,101215.75
2023-08-15T05:30:18.270Z,101212.13
2023-08-15T05:31:20.662Z,101205.84
2023-08-15T05:32:23.757Z,101212.13
2023-08-15T05:33:25.410Z,101204.00
2023-08-15T05:34:27.037Z,101210.16
2023-08-15T05:35:29.154Z,101207.56
2023-08-15T05:36:31.102Z,101208.41
2023-08-15T05:37:32.772Z,101209.50
2023-08-15T05:38:34.549Z,101212.22
2023-08-15T05:39:36.332Z,101211.78
2023-08-15T05:40:37.931Z,101212.50
2023-08-15T05:41:40.848Z,101215.22
2023-08-15T05:42:42.489Z,101220.66
2023-08-15T05:43:44.081Z,101223.09
2023-08-15T05:44:45.683Z,101223.31
2023-08-15T05:45:47.592Z,101236.53
2023-08-15T05:46:49.248Z,101225.88
2023-08-15T05:47:52.281Z,101225.72
2023-08-15T05:48:53.921Z,101228.19
2023-08-15T05:49:55.644Z,101227.09
2023-08-15T05:50:57.325Z,101223.38
2023-08-15T05:51:58.926Z,101233.06
2023-08-15T05:53:00.526Z,101233.81
2023-08-15T05:54:02.113Z,101232.84
2023-08-15T05:55:04.098Z,101233.69
2023-08-15T05:56:05.847Z,101231.78
2023-08-15T05:57:07.514Z,101230.88
2023-08-15T05:58:09.151Z,101235.28
2023-08-15T05:59:10.730Z,101234.31
2023-08-15T06:00:13.759Z,101234.22
2023-08-15T06:01:15.856Z,101233.34
2023-08-15T06:02:17.591Z,101231.44
2023-08-15T06:03:35.892Z,101227.88
2023-08-15T06:04:42.305Z,101213.38
2023-08-15T06:05:43.985Z,101226.75
2023-08-15T06:06:45.773Z,101220.44
2023-08-15T06:07:47.346Z,101219.59
2023-08-15T06:08:49.598Z,101228.94
2023-08-15T06:09:51.204Z,101230.75
2023-08-15T06:10:52.851Z,101232.53
2023-08-15T06:11:54.407Z,101226.25
2023-08-15T06:12:55.974Z,101215.31
2023-08-15T06:13:57.655Z,101220.56
2023-08-15T06:14:59.335Z,101215.06
2023-08-15T06:16:00.929Z,101208.66
2023-08-15T06:17:02.584Z,101210.31
2023-08-15T06:18:04.547Z,101216.50
2023-08-15T06:19:07.656Z,101209.06
2023-08-15T06:20:10.473Z,101217.97
2023-08-15T06:21:12.109Z,101215.06
2023-08-15T06:22:13.731Z,101213.91
2023-08-15T06:23:15.725Z,101216.41
2023-08-15T06:24:17.752Z,101216.22
2023-08-15T06:25:19.400Z,101219.63
2023-08-15T06:26:21.071Z,101217.78
2023-08-15T06:27:23.080Z,101207.03
2023-08-15T06:28:25.272Z,101207.91
2023-08-15T06:29:26.994Z,101207.41
2023-08-15T06:30:29.086Z,101216.31
2023-08-15T06:31:31.450Z,101217.88
2023-08-15T06:32:33.860Z,101214.06
2023-08-15T06:33:35.548Z,101224.13
2023-08-15T06:34:38.533Z,101223.94
2023-08-15T06:35:40.111Z,101228.28
2023-08-15T06:36:41.777Z,101228.19
2023-08-15T06:37:43.386Z,101229.00
2023-08-15T06:38:45.227Z,101222.53
2023-08-15T06:39:46.866Z,101230.44
2023-08-15T06:40:49.444Z,101226.16
2023-08-15T06:41:51.377Z,101229.59
2023-08-15T06:42:53.498Z,101221.38
2023-08-15T06:43:55.123Z,101223.03
2023-08-15T06:45:06.591Z,101219.38
2023-08-15T06:46:08.314Z,101232.66
2023-08-15T06:47:10.026Z,101222.81
2023-08-15T06:48:11.648Z,101209.25
2023-08-15T06:49:13.405Z,101225.34
2023-08-15T06:50:16.580Z,101219.00
2023-08-15T06:51:18.260Z,101225.13
2023-08-15T06:52:19.858Z,101223.59
2023-08-15T06:53:21.932Z,101221.41
2023-08-15T06:54:23.578Z,101218.44
2023-08-15T06:55:25.173Z,101223.81
2023-08-15T06:56:27.857Z,101229.56
2023-08-15T06:57:30.676Z,101230.03
2023-08-15T06:58:32.308Z,101228.69
2023-08-15T06:59:34.278Z,101229.22
2023-08-15T07:00:36.134Z,101226.53
2023-08-15T07:01:37.923Z,101219.28
2023-08-15T07:02:39.851Z,101228.13
2023-08-15T07:03:41.732Z,101221.63
2023-08-15T07:04:43.389Z,101221.25
2023-08-15T07:05:46.638Z,101220.16
2023-08-15T07:06:48.203Z,101221.84
2023-08-15T07:07:49.916Z,101219.22
2023-08-15T07:08:51.677Z,101221.88
2023-08-15T07:09:53.466Z,101218.50
2023-08-15T07:10:55.401Z,101210.03
2023-08-15T07:11:57.168Z,101199.19
2023-08-15T07:12:58.764Z,101210.56
2023-08-15T07:14:00.416Z,101207.94
2023-08-15T07:15:02.452Z,101200.72
2023-08-15T07:16:04.367Z,101195.16
2023-08-15T07:17:06.044Z,101196.03
2023-08-15T07:18:09.769Z,101192.28
2023-08-15T07:19:11.558Z,101193.84
2023-08-15T07:20:13.302Z,101188.19
2023-08-15T07:21:19.666Z,101188.75
2023-08-15T07:22:25.106Z,101184.44
2023-08-15T07:23:26.769Z,101194.25
2023-08-15T07:24:28.405Z,101181.41
2023-08-15T07:25:31.614Z,101192.38
2023-08-15T07:26:33.613Z,101187.06
2023-08-15T07:27:35.472Z,101183.34
2023-08-15T07:28:38.231Z,101192.81
2023-08-15T07:29:41.051Z,101189.13
2023-08-15T07:30:44.726Z,101187.22
2023-08-15T07:31:46.520Z,101191.81
2023-08-15T07:32:48.441Z,101198.88
2023-08-15T07:33:50.146Z,101201.31
2023-08-15T07:34:51.711Z,101198.41
2023-08-15T07:35:53.273Z,101199.19
2023-08-15T07:36:56.208Z,101201.94
2023-08-15T07:37:58.891Z,101203.69
2023-08-15T07:39:01.211Z,101206.94
2023-08-15T07:40:04.642Z,101212.84
2023-08-15T07:41:06.333Z,101210.84
2023-08-15T07:42:07.981Z,101210.50
2023-08-15T07:43:09.578Z,101213.69
2023-08-15T07:44:11.145Z,101209.91
2023-08-15T07:45:12.719Z,101208.00
2023-08-15T07:46:15.970Z,101207.06
2023-08-15T07:47:17.592Z,101204.22
2023-08-15T07:48:19.417Z,101206.56
2023-08-15T07:49:20.993Z,101207.41
2023-08-15T07:50:25.201Z,101207.09
2023-08-15T07:51:26.784Z,101202.63
2023-08-15T07:52:30.176Z,101207.81
2023-08-15T07:53:34.931Z,101204.09
2023-08-15T07:54:36.502Z,101209.22
2023-08-15T07:55:38.056Z,101209.19
2023-08-15T07:56:39.675Z,101210.94
2023-08-15T07:57:41.339Z,101200.03
2023-08-15T07:58:42.919Z,101202.41
2023-08-15T07:59:44.786Z,101203.16
2023-08-15T08:00:46.410Z,101200.00
2023-08-15T08:01:48.151Z,101202.63
2023-08-15T08:02:49.839Z,101197.00
2023-08-15T08:03:51.556Z,101203.31
2023-08-15T08:04:53.208Z,101202.41
2023-08-15T08:05:57.946Z,101211.38
2023-08-15T08:06:59.870Z,101212.16
2023-08-15T08:08:03.071Z,101209.59
2023-08-15T08:09:04.769Z,101219.28
2023-08-15T08:10:07.694Z,101228.84
2023-08-15T08:11:09.373Z,101218.50
2023-08-15T08:12:12.260Z,101228.88
2023-08-15T08:13:13.900Z,101226.66
2023-08-15T08:14:15.569Z,101219.75
2023-08-15T08:15:17.333Z,101224.75
2023-08-15T08:16:19.300Z,101218.88
2023-08-15T08:17:20.926Z,101214.91
2023-08-15T08:18:22.524Z,101218.44
2023-08-15T08:19:24.087Z,101211.81
2023-08-15T08:20:25.798Z,101211.59
2023-08-15T08:21:27.506Z,101215.00
2023-08-15T08:22:29.088Z,101213.75
2023-08-15T08:23:32.019Z,101216.03
2023-08-15T08:24:33.579Z,101219.22
2023-08-15T08:25:35.792Z,101216.50
2023-08-15T08:26:37.418Z,101224.78
2023-08-15T08:27:38.992Z,101225.59
2023-08-15T08:28:41.034Z,101224.66
2023-08-15T08:29:42.655Z,101225.59
2023-08-15T08:30:44.634Z,101226.19
2023-08-15T08:31:46.294Z,101228.41
2023-08-15T08:32:48.395Z,101217.38
2023-08-15T08:33:50.078Z,101217.66
2023-08-15T08:34:51.756Z,101222.47
2023-08-15T08:35:54.004Z,101230.81
2023-08-15T08:36:56.760Z,101224.84
2023-08-15T08:37:58.642Z,101238.28
2023-08-15T08:39:01.674Z,101237.63
2023-08-15T08:40:03.714Z,101240.41
2023-08-15T08:41:05.295Z,101242.41
2023-08-15T08:42:07.664Z,101246.53
2023-08-15T08:43:14.439Z,101246.47
2023-08-15T08:44:18.776Z,101248.59
2023-08-15T08:45:24.726Z,101242.13
2023-08-15T08:46:27.877Z,101247.69
2023-08-15T08:47:32.061Z,101253.47
2023-08-15T08:48:34.961Z,101258.69
2023-08-15T08:49:39.366Z,101258.41
2023-08-15T08:50:40.946Z,101260.78
2023-08-15T08:51:43.235Z,101265.25
2023-08-15T08:52:45.217Z,101265.44
2023-08-15T08:53:46.829Z,101263.31
2023-08-15T08:54:57.287Z,101260.94
2023-08-15T08:55:59.480Z,101267.88
2023-08-15T08:57:01.810Z,101267.88
2023-08-15T08:58:07.521Z,101266.34
2023-08-15T08:59:12.346Z,101265.34
2023-08-15T09:00:15.394Z,101259.38
2023-08-15T09:01:17.892Z,101271.41
2023-08-15T09:02:22.537Z,101250.53
2023-08-15T09:03:24.370Z,101262.78
2023-08-15T09:04:26.144Z,101252.50
2023-08-15T09:05:28.214Z,101247.78
2023-08-15T09:06:29.806Z,101248.53
2023-08-15T09:07:32.253Z,101257.97
2023-08-15T09:08:33.884Z,101258.69
2023-08-15T09:09:35.502Z,101263.75
2023-08-15T09:10:38.481Z,101259.22
2023-08-15T09:11:40.136Z,101257.38
2023-08-15T09:12:42.022Z,101256.34
2023-08-15T09:13:47.029Z,101253.91
2023-08-15T09:14:48.623Z,101251.22
2023-08-15T09:15:50.322Z,101263.47
2023-08-15T09:16:51.888Z,101251.50
2023-08-15T09:17:59.289Z,101255.25
2023-08-15T09:19:01.325Z,101250.41
2023-08-15T09:20:11.672Z,101258.38
2023-08-15T09:21:13.361Z,101259.75
2023-08-15T09:22:21.701Z,101256.25
2023-08-15T09:23:23.378Z,101254.63
2023-08-15T09:24:27.226Z,101258.88
2023-08-15T09:25:29.271Z,101257.63
2023-08-15T09:26:34.754Z,101258.66
2023-08-15T09:27:37.735Z,101254.56
2023-08-15T09:28:40.014Z,101257.47
2023-08-15T09:29:43.529Z,101247.06
2023-08-15T09:30:51.572Z,101256.06
2023-08-15T09:31:53.138Z,101254.56
2023-08-15T09:32:54.865Z,101253.22
2023-08-15T09:33:56.689Z,101254.84
2023-08-15T09:34:58.378Z,101257.34
2023-08-15T09:36:01.815Z,101260.06
2023-08-15T09:37:03.680Z,101257.09
2023-08-15T09:38:05.772Z,101255.53
2023-08-15T09:39:10.521Z,101248.81
2023-08-15T09:40:14.901Z,101255.88
2023-08-15T09:41:16.504Z,101251.41
2023-08-15T09:42:21.390Z,101249.16
2023-08-15T09:43:23.006Z,101247.06
2023-08-15T09:44:31.536Z,101255.16
2023-08-15T09:45:33.361Z,101245.28
2023-08-15T09:46:36.199Z,101251.19
2023-08-15T09:47:38.867Z,101258.00
2023-08-15T09:48:41.019Z,101258.53
2023-08-15T09:49:42.892Z,101256.31
2023-08-15T09:50:45.639Z,101260.06
2023-08-15T09:51:48.102Z,101258.31
2023-08-15T09:52:52.768Z,101255.81
2023-08-15T09:53:54.877Z,101252.75
2023-08-15T09:54:56.940Z,101259.41
2023-08-15T09:55:58.714Z,101255.22
2023-08-15T09:57:00.390Z,101250.78
2023-08-15T09:58:04.227Z,101247.81
2023-08-15T09:59:05.816Z,101241.09
2023-08-15T10:00:09.351Z,101244.31
2023-08-15T10:01:18.856Z,101244.53
2023-08-15T10:02:23.178Z,101235.97
2023-08-15T10:03:29.489Z,101238.75
2023-08-15T10:04:34.748Z,101226.81
2023-08-15T10:05:39.170Z,101231.63
2023-08-15T10:06:43.320Z,101237.59
2023-08-15T10:07:46.229Z,101234.66
2023-08-15T10:08:49.350Z,101229.28
2023-08-15T10:09:53.213Z,101231.31
2023-08-15T10:10:54.827Z,101229.22
2023-08-15T10:11:58.173Z,101229.88
2023-08-15T10:13:01.869Z,101228.53
2023-08-15T10:14:05.315Z,101226.19
2023-08-15T10:15:08.537Z,101218.03
2023-08-15T10:16:13.771Z,101226.25
2023-08-15T10:17:16.094Z,101217.63
2023-08-15T10:18:17.936Z,101217.38
2023-08-15T10:19:19.578Z,101212.78
2023-08-15T10:20:21.849Z,101220.03
2023-08-15T10:21:23.521Z,101206.44
2023-08-15T10:22:25.397Z,101209.94
2023-08-15T10:23:29.075Z,101203.63
2023-08-15T10:24:30.915Z,101204.44
2023-08-15T10:25:35.050Z,101196.00
2023-08-15T10:26:38.670Z,101196.72
2023-08-15T10:27:45.576Z,101201.88
2023-08-15T10:28:47.541Z,101191.06
2023-08-15T10:29:55.245Z,101193.81
2023-08-15T10:30:57.272Z,101197.91
2023-08-15T10:31:59.804Z,101189.13
2023-08-15T10:33:02.073Z,101194.84
2023-08-15T10:34:04.517Z,101191.28
2023-08-15T10:35:06.949Z,101186.00
2023-08-15T10:36:09.881Z,101179.88
2023-08-15T10:37:28.863Z,101184.00
2023-08-15T10:38:32.639Z,101186.09
2023-08-15T10:39:37.962Z,101192.50
2023-08-15T10:40:42.696Z,101191.19
2023-08-15T10:41:44.291Z,101194.84
2023-08-15T10:43:06.703Z,101184.53
2023-08-15T10:44:09.363Z,101188.00
2023-08-15T10:45:14.919Z,101183.56
2023-08-15T10:46:17.850Z,101184.91
2023-08-15T10:47:25.662Z,101191.53
2023-08-15T10:48:51.733Z,101199.88
2023-08-15T10:50:04.543Z,101199.72
2023-08-15T10:51:06.348Z,101191.63
2023-08-15T10:52:07.952Z,101196.44
2023-08-15T10:53:09.750Z,101193.66
2023-08-15T10:54:13.696Z,101192.59
2023-08-15T10:55:15.865Z,101193.22
2023-08-15T10:56:19.040Z,101189.28
2023-08-15T10:57:21.941Z,101194.44
2023-08-15T10:58:23.905Z,101194.13
2023-08-15T10:59:25.654Z,101192.22
2023-08-15T11:00:28.731Z,101192.22
2023-08-15T11:01:31.439Z,101197.94
2023-08-15T11:02:33.610Z,101191.09
2023-08-15T11:03:35.930Z,101189.97
2023-08-15T11:04:37.567Z,101193.34
2023-08-15T11:05:39.234Z,101186.47
2023-08-15T11:06:44.102Z,101181.34
2023-08-15T11:07:45.903Z,101190.22
2023-08-15T11:08:48.824Z,101188.47
2023-08-15T11:09:51.336Z,101193.34
2023-08-15T11:10:53.078Z,101200.69
2023-08-15T11:11:54.804Z,101198.34
2023-08-15T11:12:58.160Z,101189.75
2023-08-15T11:13:59.727Z,101193.97
2023-08-15T11:15:01.423Z,101192.78
2023-08-15T11:16:06.212Z,101188.69
2023-08-15T11:17:07.931Z,101193.66
2023-08-15T11:18:09.607Z,101189.34
2023-08-15T11:19:11.376Z,101188.88
2023-08-15T11:20:13.282Z,101178.44
2023-08-15T11:21:17.292Z,101184.69
2023-08-15T11:22:18.887Z,101187.78
2023-08-15T11:23:21.416Z,101195.78
2023-08-15T11:24:23.004Z,101196.38
2023-08-15T11:25:24.975Z,101206.94
2023-08-15T11:26:27.005Z,101202.19
2023-08-15T11:27:28.986Z,101199.75
2023-08-15T11:28:30.897Z,101204.41
2023-08-15T11:29:32.628Z,101196.34
2023-08-15T11:30:34.693Z,101202.09
2023-08-15T11:31:38.278Z,101205.81
2023-08-15T11:32:40.115Z,101205.78
2023-08-15T11:33:41.804Z,101198.63
2023-08-15T11:34:43.440Z,101205.16
2023-08-15T11:35:46.561Z,101201.03
2023-08-15T11:36:49.044Z,101203.13
2023-08-15T11:37:50.634Z,101200.72
2023-08-15T11:38:52.376Z,101202.47
2023-08-15T11:39:55.070Z,101200.06
2023-08-15T11:40:58.959Z,101205.56
2023-08-15T11:42:00.677Z,101205.84
2023-08-15T11:43:02.636Z,101204.00
2023-08-15T11:44:04.836Z,101209.41
2023-08-15T11:45:11.362Z,101200.41
2023-08-15T11:46:13.016Z,101208.38
2023-08-15T11:47:16.015Z,101204.34
2023-08-15T11:48:18.289Z,101215.16
2023-08-15T11:49:20.004Z,101203.63
2023-08-15T11:50:27.287Z,101217.47
2023-08-15T11:51:35.598Z,101212.84
2023-08-15T11:52:42.742Z,101213.72
2023-08-15T11:53:49.978Z,101215.59
2023-08-15T11:54:51.587Z,101209.22